SVA709 OPKC-OERK
Flight info
| Callsign | SVA709 |
|---|---|
| Flight time | 3h 4m |
| Altitude | 38000 |
| Route | MELOM A454 TAPDO G652 TULBU M628 PEKEM DCT MEDPO DCT SITUK M321 NAGUB |
| Aircraft | A20N/M-SDE2E3FGHIRWXY/LB1 |
Departure
| Time | 2026-05-04 10:13 |
|---|---|
| Airport | Jinnah International Airport (OPKC) |
Arrival
| Time | 2026-05-04 13:18 |
|---|---|
| Airport | King Khalid International Airport (OERK) |
| Time | Latitude | Longitude | Altitude | Speed | Heading |
|---|---|---|---|---|---|
| 2026-05-04 10:09 | 24.90151 | 67.16529 | 101 ft | 0 kts | 86° |
| 2026-05-04 10:10 | 24.90150 | 67.16508 | 101 ft | 8 kts | 86° |
| 2026-05-04 10:10 | 24.90146 | 67.16442 | 100 ft | 5 kts | 76° |
| 2026-05-04 10:11 | 24.90135 | 67.16421 | 99 ft | 1 kts | 6° |
| 2026-05-04 10:11 | 24.90156 | 67.16415 | 100 ft | 10 kts | 347° |
| 2026-05-04 10:11 | 24.90268 | 67.16381 | 101 ft | 23 kts | 343° |
| 2026-05-04 10:11 | 24.90371 | 67.16361 | 102 ft | 9 kts | 23° |
| 2026-05-04 10:12 | 24.90415 | 67.16458 | 101 ft | 22 kts | 73° |
| 2026-05-04 10:12 | 24.90470 | 67.16675 | 100 ft | 36 kts | 75° |
| 2026-05-04 10:12 | 24.90547 | 67.16973 | 102 ft | 32 kts | 70° |
| 2026-05-04 10:12 | 24.90639 | 67.17001 | 104 ft | 17 kts | 338° |
| 2026-05-04 10:13 | 24.90735 | 67.16916 | 107 ft | 17 kts | 267° |
| 2026-05-04 10:13 | 24.90634 | 67.16519 | 104 ft | 112 kts | 252° |
| 2026-05-04 10:13 | 24.90368 | 67.15398 | 563 ft | 172 kts | 258° |
| 2026-05-04 10:13 | 24.89996 | 67.14075 | 1540 ft | 183 kts | 245° |
| 2026-05-04 10:14 | 24.89228 | 67.13022 | 2605 ft | 178 kts | 232° |
| 2026-05-04 10:14 | 24.88338 | 67.11954 | 3239 ft | 196 kts | 231° |
| 2026-05-04 10:16 | 24.82068 | 67.04545 | 6503 ft | 235 kts | 232° |
| 2026-05-04 10:16 | 24.81873 | 67.04313 | 6527 ft | 235 kts | 232° |
| 2026-05-04 10:16 | 24.81519 | 67.03892 | 6573 ft | 236 kts | 232° |
| 2026-05-04 10:17 | 24.81159 | 67.03462 | 6605 ft | 236 kts | 232° |
| 2026-05-04 10:17 | 24.81003 | 67.03277 | 6614 ft | 236 kts | 232° |
| 2026-05-04 10:19 | 24.78715 | 66.92172 | 8152 ft | 244 kts | 279° |
| 2026-05-04 10:19 | 24.78927 | 66.90234 | 9064 ft | 264 kts | 278° |
| 2026-05-04 10:19 | 24.79144 | 66.88200 | 10173 ft | 274 kts | 278° |
| 2026-05-04 10:19 | 24.79377 | 66.86017 | 10846 ft | 300 kts | 278° |
| 2026-05-04 10:20 | 24.79631 | 66.83632 | 11407 ft | 327 kts | 278° |
| 2026-05-04 10:20 | 24.80122 | 66.81099 | 11897 ft | 350 kts | 290° |
| 2026-05-04 10:20 | 24.81310 | 66.78705 | 12280 ft | 374 kts | 307° |
| 2026-05-04 10:20 | 24.83161 | 66.76607 | 12959 ft | 386 kts | 315° |
| 2026-05-04 10:21 | 24.85128 | 66.74564 | 13830 ft | 391 kts | 316° |
| 2026-05-04 10:21 | 24.87123 | 66.72490 | 14679 ft | 396 kts | 315° |
| 2026-05-04 10:21 | 24.89129 | 66.70392 | 15541 ft | 400 kts | 315° |
| 2026-05-04 10:21 | 24.91162 | 66.68256 | 16363 ft | 405 kts | 315° |
| 2026-05-04 10:22 | 24.95285 | 66.63907 | 17956 ft | 415 kts | 315° |
| 2026-05-04 10:22 | 24.97377 | 66.61695 | 18673 ft | 418 kts | 315° |
| 2026-05-04 10:22 | 24.99459 | 66.59494 | 19405 ft | 421 kts | 315° |
| 2026-05-04 10:23 | 25.01577 | 66.57254 | 20151 ft | 424 kts | 315° |
| 2026-05-04 10:23 | 25.03625 | 66.54947 | 20839 ft | 427 kts | 309° |
| 2026-05-04 10:25 | 25.10345 | 66.32758 | 25232 ft | 449 kts | 285° |
| 2026-05-04 10:25 | 25.11086 | 66.29407 | 25733 ft | 451 kts | 285° |
| 2026-05-04 10:25 | 25.11830 | 66.26036 | 26193 ft | 452 kts | 286° |
| 2026-05-04 10:25 | 25.12576 | 66.22653 | 26572 ft | 454 kts | 286° |
| 2026-05-04 10:26 | 25.13312 | 66.19310 | 26881 ft | 455 kts | 286° |
| 2026-05-04 10:26 | 25.14061 | 66.15905 | 27123 ft | 457 kts | 286° |
| 2026-05-04 10:26 | 25.14810 | 66.12492 | 27377 ft | 457 kts | 286° |
| 2026-05-04 10:26 | 25.15555 | 66.09093 | 27682 ft | 455 kts | 286° |
| 2026-05-04 10:27 | 25.16298 | 66.05701 | 27996 ft | 453 kts | 286° |
| 2026-05-04 10:27 | 25.17036 | 66.02326 | 28316 ft | 452 kts | 286° |
| 2026-05-04 10:27 | 25.17772 | 65.98959 | 28635 ft | 450 kts | 286° |
| 2026-05-04 10:27 | 25.18260 | 65.96727 | 28843 ft | 449 kts | 286° |
| 2026-05-04 10:28 | 25.19226 | 65.92297 | 29286 ft | 447 kts | 286° |
| 2026-05-04 10:28 | 25.19953 | 65.88963 | 29643 ft | 445 kts | 286° |
| 2026-05-04 10:28 | 25.20673 | 65.85652 | 29964 ft | 443 kts | 286° |
| 2026-05-04 10:28 | 25.21160 | 65.83413 | 30184 ft | 442 kts | 286° |
| 2026-05-04 10:29 | 25.21868 | 65.80158 | 30496 ft | 441 kts | 286° |
| 2026-05-04 10:29 | 25.22581 | 65.76868 | 30849 ft | 440 kts | 286° |
| 2026-05-04 10:29 | 25.23293 | 65.73585 | 31196 ft | 439 kts | 286° |
| 2026-05-04 10:29 | 25.24002 | 65.70310 | 31526 ft | 437 kts | 286° |
| 2026-05-04 10:30 | 25.24709 | 65.67041 | 31861 ft | 436 kts | 286° |
| 2026-05-04 10:30 | 25.25411 | 65.63790 | 32183 ft | 435 kts | 286° |
| 2026-05-04 10:30 | 25.26111 | 65.60543 | 32502 ft | 434 kts | 286° |
| 2026-05-04 10:30 | 25.26810 | 65.57301 | 32825 ft | 433 kts | 286° |
| 2026-05-04 10:31 | 25.27507 | 65.54065 | 33140 ft | 432 kts | 286° |
| 2026-05-04 10:31 | 25.28199 | 65.50844 | 33437 ft | 431 kts | 286° |
| 2026-05-04 10:32 | 25.32305 | 65.31677 | 34940 ft | 426 kts | 285° |
| 2026-05-04 10:33 | 25.32983 | 65.28497 | 35188 ft | 425 kts | 285° |
| 2026-05-04 10:33 | 25.33660 | 65.25322 | 35443 ft | 424 kts | 285° |
| 2026-05-04 10:33 | 25.34337 | 65.22150 | 35775 ft | 424 kts | 285° |
| 2026-05-04 10:33 | 25.35012 | 65.18976 | 36090 ft | 423 kts | 285° |
| 2026-05-04 10:34 | 25.35684 | 65.15816 | 36391 ft | 422 kts | 285° |
| 2026-05-04 10:34 | 25.36355 | 65.12656 | 36700 ft | 421 kts | 285° |
| 2026-05-04 10:34 | 25.37022 | 65.09513 | 37002 ft | 420 kts | 285° |
| 2026-05-04 10:34 | 25.37687 | 65.06365 | 37326 ft | 419 kts | 285° |
| 2026-05-04 10:35 | 25.38350 | 65.03227 | 37643 ft | 418 kts | 285° |
| 2026-05-04 10:35 | 25.39011 | 65.00096 | 37949 ft | 417 kts | 285° |
| 2026-05-04 10:35 | 25.39669 | 64.96975 | 38265 ft | 416 kts | 285° |
| 2026-05-04 10:35 | 25.40324 | 64.93864 | 38528 ft | 415 kts | 285° |
| 2026-05-04 10:36 | 25.40977 | 64.90755 | 38693 ft | 415 kts | 284° |
| 2026-05-04 10:36 | 25.41406 | 64.87603 | 38675 ft | 416 kts | 277° |
| 2026-05-04 10:36 | 25.41031 | 64.81223 | 38676 ft | 424 kts | 263° |
| 2026-05-04 10:37 | 25.39352 | 64.74912 | 38679 ft | 428 kts | 258° |
| 2026-05-04 10:37 | 25.37606 | 64.68619 | 38678 ft | 427 kts | 258° |
| 2026-05-04 10:39 | 25.31497 | 64.46662 | 38680 ft | 428 kts | 258° |
| 2026-05-04 10:40 | 25.29742 | 64.40387 | 38679 ft | 427 kts | 258° |
| 2026-05-04 10:40 | 25.27980 | 64.34100 | 38679 ft | 428 kts | 258° |
| 2026-05-04 10:41 | 25.26220 | 64.27830 | 38679 ft | 427 kts | 258° |
| 2026-05-04 10:41 | 25.24466 | 64.21594 | 38687 ft | 428 kts | 258° |
| 2026-05-04 10:42 | 25.22700 | 64.15323 | 38684 ft | 428 kts | 258° |
| 2026-05-04 10:42 | 25.20929 | 64.09048 | 38686 ft | 428 kts | 258° |
| 2026-05-04 10:43 | 25.19154 | 64.02768 | 38685 ft | 428 kts | 258° |
| 2026-05-04 10:45 | 25.12020 | 63.77648 | 38700 ft | 429 kts | 258° |
| 2026-05-04 10:45 | 25.10240 | 63.71406 | 38686 ft | 429 kts | 258° |
| 2026-05-04 10:46 | 25.08457 | 63.65165 | 38689 ft | 429 kts | 258° |
| 2026-05-04 10:46 | 25.06658 | 63.58881 | 38683 ft | 429 kts | 258° |
| 2026-05-04 10:47 | 25.04856 | 63.52597 | 38689 ft | 429 kts | 257° |
| 2026-05-04 10:47 | 25.03050 | 63.46308 | 38696 ft | 429 kts | 257° |
| 2026-05-04 10:49 | 24.95810 | 63.21212 | 38701 ft | 430 kts | 257° |
| 2026-05-04 10:50 | 24.93988 | 63.14926 | 38701 ft | 430 kts | 257° |
| 2026-05-04 10:52 | 24.86714 | 62.89932 | 38701 ft | 427 kts | 257° |
| 2026-05-04 10:52 | 24.84892 | 62.83699 | 38700 ft | 427 kts | 257° |
| 2026-05-04 10:54 | 24.77592 | 62.58826 | 38705 ft | 427 kts | 257° |
| 2026-05-04 10:56 | 24.70238 | 62.33945 | 38707 ft | 428 kts | 257° |
| 2026-05-04 10:57 | 24.68404 | 62.27765 | 38706 ft | 428 kts | 257° |
| 2026-05-04 10:57 | 24.66555 | 62.21542 | 38707 ft | 428 kts | 257° |
| 2026-05-04 10:58 | 24.64702 | 62.15321 | 38709 ft | 428 kts | 257° |
| 2026-05-04 10:58 | 24.62844 | 62.09093 | 38706 ft | 428 kts | 257° |
| 2026-05-04 10:59 | 24.60985 | 62.02871 | 38707 ft | 428 kts | 257° |
| 2026-05-04 10:59 | 24.59123 | 61.96648 | 38712 ft | 429 kts | 257° |
| 2026-05-04 11:00 | 24.57262 | 61.90424 | 38701 ft | 429 kts | 255° |
| 2026-05-04 11:02 | 24.49701 | 61.65304 | 38706 ft | 437 kts | 255° |
| 2026-05-04 11:05 | 24.34928 | 61.17639 | 38713 ft | 442 kts | 253° |
| 2026-05-04 11:06 | 24.32864 | 61.11287 | 38711 ft | 442 kts | 253° |
| 2026-05-04 11:06 | 24.30798 | 61.04928 | 38710 ft | 442 kts | 253° |
| 2026-05-04 11:10 | 24.16247 | 60.60442 | 37832 ft | 445 kts | 253° |
| 2026-05-04 11:12 | 24.07785 | 60.34796 | 37821 ft | 450 kts | 253° |
| 2026-05-04 11:12 | 24.05650 | 60.28351 | 37819 ft | 450 kts | 253° |
| 2026-05-04 11:13 | 24.03511 | 60.21905 | 37813 ft | 451 kts | 253° |
| 2026-05-04 11:13 | 24.01380 | 60.15494 | 37815 ft | 451 kts | 253° |
| 2026-05-04 11:14 | 23.99232 | 60.09041 | 37817 ft | 452 kts | 253° |
| 2026-05-04 11:16 | 23.90965 | 59.84300 | 37827 ft | 452 kts | 252° |
| 2026-05-04 11:16 | 23.88799 | 59.77841 | 37832 ft | 453 kts | 252° |
| 2026-05-04 11:17 | 23.86277 | 59.70334 | 37838 ft | 453 kts | 252° |
| 2026-05-04 11:19 | 23.77866 | 59.45598 | 37853 ft | 454 kts | 251° |
| 2026-05-04 11:19 | 23.75532 | 59.39189 | 37858 ft | 454 kts | 251° |
| 2026-05-04 11:20 | 23.73208 | 59.32775 | 37862 ft | 454 kts | 251° |
| 2026-05-04 11:20 | 23.70888 | 59.26354 | 37860 ft | 454 kts | 251° |
| 2026-05-04 11:22 | 23.61601 | 59.00718 | 37891 ft | 455 kts | 251° |
| 2026-05-04 11:23 | 23.59263 | 58.94291 | 37902 ft | 455 kts | 251° |
| 2026-05-04 11:25 | 23.51072 | 58.71843 | 37935 ft | 455 kts | 251° |
| 2026-05-04 11:25 | 23.48740 | 58.65473 | 37967 ft | 456 kts | 251° |
| 2026-05-04 11:27 | 23.38086 | 58.36670 | 38035 ft | 456 kts | 250° |
| 2026-05-04 11:28 | 23.35638 | 58.30287 | 38033 ft | 455 kts | 250° |
| 2026-05-04 11:28 | 23.33219 | 58.23958 | 38079 ft | 456 kts | 250° |
| 2026-05-04 11:29 | 23.30783 | 58.17588 | 38094 ft | 456 kts | 250° |
| 2026-05-04 11:29 | 23.28344 | 58.11217 | 38134 ft | 456 kts | 250° |
| 2026-05-04 11:33 | 23.12470 | 57.66250 | 38313 ft | 455 kts | 252° |
| 2026-05-04 11:33 | 23.10243 | 57.59817 | 38341 ft | 455 kts | 252° |
| 2026-05-04 11:34 | 23.08008 | 57.53374 | 38353 ft | 456 kts | 252° |
| 2026-05-04 11:34 | 23.05765 | 57.46915 | 38361 ft | 457 kts | 252° |
| 2026-05-04 11:35 | 23.03523 | 57.40472 | 38387 ft | 456 kts | 252° |
| 2026-05-04 11:35 | 23.01354 | 57.34001 | 38387 ft | 455 kts | 256° |
| 2026-05-04 11:36 | 23.00304 | 57.27319 | 38401 ft | 451 kts | 269° |
| 2026-05-04 11:36 | 23.00398 | 57.20518 | 38402 ft | 451 kts | 273° |
| 2026-05-04 11:37 | 23.00566 | 57.13703 | 38409 ft | 451 kts | 272° |
| 2026-05-04 11:37 | 23.00726 | 57.06898 | 38424 ft | 451 kts | 272° |
| 2026-05-04 11:38 | 23.00886 | 57.00128 | 38447 ft | 451 kts | 272° |
| 2026-05-04 11:38 | 23.01046 | 56.93329 | 38451 ft | 451 kts | 272° |
| 2026-05-04 11:39 | 23.01211 | 56.86510 | 38458 ft | 451 kts | 272° |
| 2026-05-04 11:41 | 23.01760 | 56.62736 | 38488 ft | 450 kts | 272° |
| 2026-05-04 11:41 | 23.01910 | 56.55945 | 38491 ft | 449 kts | 272° |
| 2026-05-04 11:42 | 23.02055 | 56.49230 | 38070 ft | 445 kts | 272° |
| 2026-05-04 11:42 | 23.02127 | 56.45872 | 37839 ft | 445 kts | 272° |
| 2026-05-04 11:42 | 23.02198 | 56.42506 | 37793 ft | 447 kts | 272° |
| 2026-05-04 11:43 | 23.02339 | 56.35733 | 37792 ft | 449 kts | 272° |
| 2026-05-04 11:43 | 23.02476 | 56.28958 | 37785 ft | 449 kts | 272° |
| 2026-05-04 11:44 | 23.02603 | 56.22176 | 37780 ft | 449 kts | 272° |
| 2026-05-04 11:44 | 23.02728 | 56.15399 | 37777 ft | 449 kts | 272° |
| 2026-05-04 11:45 | 23.02849 | 56.08665 | 37773 ft | 449 kts | 272° |
| 2026-05-04 11:45 | 23.02968 | 56.01885 | 37771 ft | 449 kts | 272° |
| 2026-05-04 11:46 | 23.03085 | 55.95104 | 37771 ft | 449 kts | 272° |
| 2026-05-04 11:46 | 23.03199 | 55.88331 | 37769 ft | 449 kts | 272° |
| 2026-05-04 11:47 | 23.03312 | 55.81564 | 37766 ft | 449 kts | 272° |
| 2026-05-04 11:47 | 23.03422 | 55.74824 | 37764 ft | 449 kts | 272° |
| 2026-05-04 11:48 | 23.03529 | 55.68039 | 37760 ft | 449 kts | 272° |
| 2026-05-04 11:48 | 23.03633 | 55.61268 | 37760 ft | 448 kts | 272° |
| 2026-05-04 11:49 | 23.03735 | 55.54482 | 37763 ft | 448 kts | 272° |
| 2026-05-04 11:49 | 23.03833 | 55.47764 | 37753 ft | 448 kts | 272° |
| 2026-05-04 11:50 | 23.03932 | 55.40992 | 37757 ft | 448 kts | 272° |
| 2026-05-04 11:50 | 23.04027 | 55.34225 | 37752 ft | 448 kts | 272° |
| 2026-05-04 11:51 | 23.03585 | 55.27487 | 37751 ft | 450 kts | 261° |
| 2026-05-04 11:51 | 23.02285 | 55.20835 | 37745 ft | 450 kts | 260° |
| 2026-05-04 11:52 | 23.00982 | 55.14183 | 37744 ft | 450 kts | 260° |
| 2026-05-04 11:52 | 22.99678 | 55.07540 | 37741 ft | 450 kts | 260° |
| 2026-05-04 11:53 | 22.98378 | 55.00943 | 37734 ft | 450 kts | 260° |
| 2026-05-04 11:53 | 22.97066 | 54.94302 | 37737 ft | 449 kts | 260° |
| 2026-05-04 11:55 | 22.91794 | 54.67783 | 37731 ft | 449 kts | 260° |
| 2026-05-04 11:56 | 22.90471 | 54.61164 | 37732 ft | 449 kts | 260° |
| 2026-05-04 11:56 | 22.89152 | 54.54582 | 37732 ft | 449 kts | 260° |
| 2026-05-04 11:57 | 22.87824 | 54.47968 | 37738 ft | 449 kts | 260° |
| 2026-05-04 11:57 | 22.86493 | 54.41356 | 37737 ft | 449 kts | 260° |
| 2026-05-04 11:58 | 22.85160 | 54.34747 | 37736 ft | 449 kts | 259° |
| 2026-05-04 11:58 | 22.83822 | 54.28124 | 37740 ft | 449 kts | 259° |
| 2026-05-04 11:59 | 22.82482 | 54.21513 | 37736 ft | 449 kts | 259° |
| 2026-05-04 11:59 | 22.81140 | 54.14903 | 37737 ft | 449 kts | 259° |
| 2026-05-04 12:00 | 22.79796 | 54.08301 | 37738 ft | 448 kts | 259° |
| 2026-05-04 12:00 | 22.78451 | 54.01706 | 37737 ft | 448 kts | 259° |
| 2026-05-04 12:01 | 22.77137 | 53.95160 | 37738 ft | 448 kts | 260° |
| 2026-05-04 12:02 | 22.72643 | 53.72072 | 37737 ft | 447 kts | 260° |
| 2026-05-04 12:03 | 22.71348 | 53.65484 | 37739 ft | 447 kts | 260° |
| 2026-05-04 12:03 | 22.70050 | 53.58891 | 37736 ft | 447 kts | 260° |
| 2026-05-04 12:04 | 22.68750 | 53.52306 | 37738 ft | 447 kts | 260° |
| 2026-05-04 12:04 | 22.67668 | 53.46838 | 37738 ft | 446 kts | 260° |
| 2026-05-04 12:05 | 22.66154 | 53.39201 | 37741 ft | 446 kts | 260° |
| 2026-05-04 12:05 | 22.64849 | 53.32629 | 37740 ft | 446 kts | 260° |
| 2026-05-04 12:06 | 22.63541 | 53.26063 | 37741 ft | 446 kts | 259° |
| 2026-05-04 12:06 | 22.62450 | 53.20597 | 37737 ft | 446 kts | 259° |
| 2026-05-04 12:07 | 22.61139 | 53.14039 | 37739 ft | 446 kts | 259° |
| 2026-05-04 12:07 | 22.59821 | 53.07466 | 37737 ft | 446 kts | 259° |
| 2026-05-04 12:08 | 22.58504 | 53.00905 | 37739 ft | 446 kts | 259° |
| 2026-05-04 12:08 | 22.57184 | 52.94348 | 37738 ft | 446 kts | 259° |
| 2026-05-04 12:09 | 22.55859 | 52.87782 | 37742 ft | 446 kts | 259° |
| 2026-05-04 12:09 | 22.54541 | 52.81264 | 37740 ft | 446 kts | 259° |
| 2026-05-04 12:10 | 22.53212 | 52.74703 | 37741 ft | 446 kts | 259° |
| 2026-05-04 12:10 | 22.51883 | 52.68161 | 37737 ft | 445 kts | 259° |
| 2026-05-04 12:11 | 22.50550 | 52.61613 | 37736 ft | 446 kts | 259° |
| 2026-05-04 12:11 | 22.49215 | 52.55067 | 37744 ft | 445 kts | 259° |
| 2026-05-04 12:12 | 22.47878 | 52.48524 | 37738 ft | 445 kts | 259° |
| 2026-05-04 12:12 | 22.46548 | 52.42030 | 37739 ft | 445 kts | 259° |
| 2026-05-04 12:14 | 22.41293 | 52.15851 | 37741 ft | 444 kts | 265° |
| 2026-05-04 12:15 | 22.41247 | 52.09237 | 37742 ft | 443 kts | 276° |
| 2026-05-04 12:15 | 22.42235 | 52.02673 | 37741 ft | 443 kts | 279° |
| 2026-05-04 12:16 | 22.43270 | 51.96106 | 37739 ft | 443 kts | 279° |
| 2026-05-04 12:16 | 22.44302 | 51.89535 | 37742 ft | 443 kts | 279° |
| 2026-05-04 12:17 | 22.45332 | 51.82973 | 37746 ft | 443 kts | 279° |
| 2026-05-04 12:17 | 22.46359 | 51.76407 | 37744 ft | 443 kts | 279° |
| 2026-05-04 12:18 | 22.47378 | 51.69877 | 37742 ft | 443 kts | 279° |
| 2026-05-04 12:18 | 22.48399 | 51.63311 | 37743 ft | 443 kts | 279° |
| 2026-05-04 12:19 | 22.49417 | 51.56752 | 37742 ft | 443 kts | 279° |
| 2026-05-04 12:19 | 22.50433 | 51.50179 | 37744 ft | 442 kts | 279° |
| 2026-05-04 12:20 | 22.51446 | 51.43617 | 37743 ft | 442 kts | 279° |
| 2026-05-04 12:20 | 22.52451 | 51.37083 | 37745 ft | 442 kts | 279° |
| 2026-05-04 12:21 | 22.53459 | 51.30511 | 37750 ft | 442 kts | 279° |
| 2026-05-04 12:21 | 22.54463 | 51.23948 | 37748 ft | 442 kts | 279° |
| 2026-05-04 12:22 | 22.55465 | 51.17381 | 37744 ft | 442 kts | 279° |
| 2026-05-04 12:22 | 22.56463 | 51.10817 | 37746 ft | 442 kts | 278° |
| 2026-05-04 12:23 | 22.57458 | 51.04264 | 37748 ft | 442 kts | 278° |
| 2026-05-04 12:23 | 22.58449 | 50.97708 | 37747 ft | 441 kts | 278° |
| 2026-05-04 12:24 | 22.59432 | 50.91192 | 37748 ft | 442 kts | 278° |
| 2026-05-04 12:24 | 22.60419 | 50.84631 | 37746 ft | 441 kts | 278° |
| 2026-05-04 12:25 | 22.61402 | 50.78075 | 37749 ft | 441 kts | 278° |
| 2026-05-04 12:25 | 22.62385 | 50.71506 | 37749 ft | 441 kts | 278° |
| 2026-05-04 12:26 | 22.63364 | 50.64942 | 37750 ft | 441 kts | 278° |
| 2026-05-04 12:26 | 22.64334 | 50.58416 | 37747 ft | 441 kts | 278° |
| 2026-05-04 12:27 | 22.65307 | 50.51856 | 37750 ft | 441 kts | 278° |
| 2026-05-04 12:27 | 22.66277 | 50.45297 | 37751 ft | 441 kts | 278° |
| 2026-05-04 12:28 | 22.67246 | 50.38723 | 37753 ft | 442 kts | 278° |
| 2026-05-04 12:28 | 22.68211 | 50.32157 | 37749 ft | 442 kts | 278° |
| 2026-05-04 12:29 | 22.69175 | 50.25582 | 37752 ft | 442 kts | 278° |
| 2026-05-04 12:29 | 22.70135 | 50.19013 | 37750 ft | 441 kts | 278° |
| 2026-05-04 12:30 | 22.71086 | 50.12486 | 37748 ft | 441 kts | 278° |
| 2026-05-04 12:30 | 22.72042 | 50.05913 | 37750 ft | 441 kts | 278° |
| 2026-05-04 12:31 | 22.72994 | 49.99342 | 37748 ft | 441 kts | 277° |
| 2026-05-04 12:31 | 22.73944 | 49.92763 | 37750 ft | 442 kts | 277° |
| 2026-05-04 12:32 | 22.75364 | 49.82894 | 37749 ft | 442 kts | 277° |
| 2026-05-04 12:33 | 22.76306 | 49.76322 | 37748 ft | 442 kts | 277° |
| 2026-05-04 12:33 | 22.77248 | 49.69734 | 37750 ft | 442 kts | 277° |
| 2026-05-04 12:34 | 22.78186 | 49.63151 | 37747 ft | 442 kts | 277° |
| 2026-05-04 12:34 | 22.79120 | 49.56576 | 37747 ft | 442 kts | 277° |
| 2026-05-04 12:35 | 22.80047 | 49.50031 | 37748 ft | 442 kts | 277° |
| 2026-05-04 12:35 | 22.80977 | 49.43448 | 37747 ft | 442 kts | 277° |
| 2026-05-04 12:36 | 22.81893 | 49.36940 | 37750 ft | 442 kts | 277° |
| 2026-05-04 12:36 | 22.82818 | 49.30351 | 37751 ft | 442 kts | 277° |
| 2026-05-04 12:37 | 22.83742 | 49.23749 | 37746 ft | 442 kts | 277° |
| 2026-05-04 12:37 | 22.84655 | 49.17204 | 37750 ft | 442 kts | 277° |
| 2026-05-04 12:38 | 22.85572 | 49.10608 | 37749 ft | 442 kts | 277° |
| 2026-05-04 12:38 | 22.86487 | 49.04008 | 37752 ft | 442 kts | 276° |
| 2026-05-04 12:39 | 22.87398 | 48.97414 | 37748 ft | 442 kts | 276° |
| 2026-05-04 12:39 | 22.88308 | 48.90815 | 37752 ft | 442 kts | 276° |
| 2026-05-04 12:40 | 22.89214 | 48.84217 | 37753 ft | 442 kts | 276° |
| 2026-05-04 12:40 | 22.90117 | 48.77623 | 37756 ft | 442 kts | 276° |
| 2026-05-04 12:41 | 22.91016 | 48.71034 | 37758 ft | 442 kts | 276° |
| 2026-05-04 12:41 | 22.91715 | 48.66004 | 37754 ft | 443 kts | 277° |
| 2026-05-04 12:42 | 22.92625 | 48.59442 | 37757 ft | 442 kts | 276° |
| 2026-05-04 12:42 | 22.93492 | 48.52837 | 37761 ft | 442 kts | 276° |
| 2026-05-04 12:43 | 22.94376 | 48.46227 | 37759 ft | 442 kts | 276° |
| 2026-05-04 12:43 | 22.95262 | 48.39630 | 37761 ft | 442 kts | 276° |
| 2026-05-04 12:44 | 22.96148 | 48.33025 | 37758 ft | 442 kts | 276° |
| 2026-05-04 12:44 | 22.97029 | 48.26424 | 37757 ft | 442 kts | 276° |
| 2026-05-04 12:45 | 22.97908 | 48.19828 | 37761 ft | 442 kts | 276° |
| 2026-05-04 12:45 | 22.98784 | 48.13223 | 37761 ft | 442 kts | 276° |
| 2026-05-04 12:46 | 22.99735 | 48.06639 | 37763 ft | 443 kts | 279° |
| 2026-05-04 12:46 | 23.01081 | 48.00147 | 37763 ft | 444 kts | 280° |
| 2026-05-04 12:47 | 23.02489 | 47.93625 | 37768 ft | 444 kts | 280° |
| 2026-05-04 12:47 | 23.03900 | 47.87095 | 37770 ft | 444 kts | 280° |
| 2026-05-04 12:48 | 23.06008 | 47.80788 | 37777 ft | 452 kts | 298° |
| 2026-05-04 12:48 | 23.07931 | 47.78061 | 37775 ft | 459 kts | 310° |
| 2026-05-04 12:48 | 23.10373 | 47.75794 | 37787 ft | 466 kts | 321° |
| 2026-05-04 12:49 | 23.15963 | 47.72134 | 37788 ft | 471 kts | 325° |
| 2026-05-04 12:49 | 23.21571 | 47.68546 | 37790 ft | 469 kts | 324° |
| 2026-05-04 12:50 | 23.27138 | 47.64826 | 37795 ft | 469 kts | 323° |
| 2026-05-04 12:50 | 23.32686 | 47.61070 | 37807 ft | 469 kts | 323° |
| 2026-05-04 12:51 | 23.38227 | 47.57312 | 37784 ft | 468 kts | 323° |
| 2026-05-04 12:51 | 23.40980 | 47.55446 | 37486 ft | 465 kts | 323° |
| 2026-05-04 12:51 | 23.43649 | 47.53543 | 36865 ft | 461 kts | 319° |
| 2026-05-04 12:51 | 23.46141 | 47.51309 | 36028 ft | 458 kts | 312° |
| 2026-05-04 12:52 | 23.48049 | 47.49181 | 35282 ft | 456 kts | 307° |
| 2026-05-04 12:52 | 23.50015 | 47.46481 | 34407 ft | 454 kts | 302° |
| 2026-05-04 12:52 | 23.51885 | 47.43690 | 33489 ft | 457 kts | 302° |
| 2026-05-04 12:52 | 23.53775 | 47.40897 | 32479 ft | 459 kts | 303° |
| 2026-05-04 12:53 | 23.55680 | 47.38087 | 31435 ft | 462 kts | 303° |
| 2026-05-04 12:53 | 23.57595 | 47.35261 | 30432 ft | 465 kts | 303° |
| 2026-05-04 12:53 | 23.59507 | 47.32437 | 29810 ft | 460 kts | 303° |
| 2026-05-04 12:53 | 23.61399 | 47.29642 | 29180 ft | 454 kts | 303° |
| 2026-05-04 12:54 | 23.63260 | 47.26887 | 28517 ft | 448 kts | 303° |
| 2026-05-04 12:54 | 23.65100 | 47.24161 | 27860 ft | 444 kts | 303° |
| 2026-05-04 12:54 | 23.66306 | 47.22373 | 27436 ft | 441 kts | 303° |
| 2026-05-04 12:54 | 23.68108 | 47.19698 | 26808 ft | 436 kts | 303° |
| 2026-05-04 12:55 | 23.70478 | 47.16180 | 26003 ft | 431 kts | 303° |
| 2026-05-04 12:55 | 23.72243 | 47.13558 | 25392 ft | 427 kts | 303° |
| 2026-05-04 12:55 | 23.73994 | 47.10954 | 24802 ft | 423 kts | 303° |
| 2026-05-04 12:55 | 23.75730 | 47.08372 | 24221 ft | 420 kts | 303° |
| 2026-05-04 12:56 | 23.76868 | 47.06679 | 23841 ft | 417 kts | 303° |
| 2026-05-04 12:56 | 23.78582 | 47.04128 | 23234 ft | 414 kts | 304° |
| 2026-05-04 12:56 | 23.80278 | 47.01603 | 22583 ft | 410 kts | 304° |
| 2026-05-04 12:56 | 23.81961 | 46.99098 | 21953 ft | 406 kts | 304° |
| 2026-05-04 12:57 | 23.83623 | 46.96622 | 21328 ft | 403 kts | 304° |
| 2026-05-04 12:57 | 23.85274 | 46.94159 | 20705 ft | 399 kts | 304° |
| 2026-05-04 12:57 | 23.86918 | 46.91728 | 20113 ft | 396 kts | 306° |
| 2026-05-04 12:57 | 23.88779 | 46.89516 | 19526 ft | 395 kts | 315° |
| 2026-05-04 12:58 | 23.90923 | 46.87639 | 18967 ft | 394 kts | 323° |
| 2026-05-04 12:58 | 23.93185 | 46.86178 | 18458 ft | 393 kts | 329° |
| 2026-05-04 12:58 | 23.95568 | 46.84746 | 17849 ft | 389 kts | 325° |
| 2026-05-04 12:58 | 23.97596 | 46.82850 | 17212 ft | 381 kts | 308° |
| 2026-05-04 12:59 | 23.99003 | 46.80423 | 16578 ft | 376 kts | 295° |
| 2026-05-04 12:59 | 24.00379 | 46.78005 | 15929 ft | 376 kts | 309° |
| 2026-05-04 12:59 | 24.02360 | 46.76142 | 15316 ft | 377 kts | 327° |
| 2026-05-04 12:59 | 24.04770 | 46.75034 | 14725 ft | 378 kts | 345° |
| 2026-05-04 13:00 | 24.07348 | 46.74809 | 14300 ft | 375 kts | 4° |
| 2026-05-04 13:00 | 24.09852 | 46.75532 | 14151 ft | 364 kts | 24° |
| 2026-05-04 13:00 | 24.11911 | 46.76998 | 14029 ft | 352 kts | 36° |
| 2026-05-04 13:00 | 24.13825 | 46.78591 | 13906 ft | 339 kts | 35° |
| 2026-05-04 13:01 | 24.15698 | 46.80078 | 13796 ft | 326 kts | 33° |
| 2026-05-04 13:01 | 24.17516 | 46.81477 | 13689 ft | 313 kts | 33° |
| 2026-05-04 13:01 | 24.19276 | 46.82810 | 13585 ft | 301 kts | 32° |
| 2026-05-04 13:01 | 24.20968 | 46.84084 | 13463 ft | 289 kts | 32° |
| 2026-05-04 13:02 | 24.22600 | 46.85310 | 13234 ft | 282 kts | 32° |
| 2026-05-04 13:02 | 24.24219 | 46.86525 | 12867 ft | 281 kts | 32° |
| 2026-05-04 13:02 | 24.25828 | 46.87734 | 12518 ft | 279 kts | 32° |
| 2026-05-04 13:02 | 24.27426 | 46.88935 | 12171 ft | 278 kts | 32° |
| 2026-05-04 13:03 | 24.28993 | 46.90115 | 11829 ft | 276 kts | 32° |
| 2026-05-04 13:03 | 24.30616 | 46.91219 | 11486 ft | 272 kts | 19° |
| 2026-05-04 13:03 | 24.32442 | 46.91572 | 11112 ft | 266 kts | 357° |
| 2026-05-04 13:03 | 24.34285 | 46.91518 | 10784 ft | 264 kts | 355° |
| 2026-05-04 13:04 | 24.36093 | 46.91428 | 10479 ft | 263 kts | 355° |
| 2026-05-04 13:04 | 24.37917 | 46.91352 | 10156 ft | 262 kts | 356° |
| 2026-05-04 13:04 | 24.39732 | 46.91301 | 9894 ft | 258 kts | 356° |
| 2026-05-04 13:04 | 24.41484 | 46.91269 | 9795 ft | 246 kts | 357° |
| 2026-05-04 13:05 | 24.43148 | 46.91247 | 9693 ft | 233 kts | 357° |
| 2026-05-04 13:05 | 24.44726 | 46.91228 | 9591 ft | 220 kts | 357° |
| 2026-05-04 13:05 | 24.46228 | 46.91209 | 9406 ft | 213 kts | 357° |
| 2026-05-04 13:05 | 24.47709 | 46.91189 | 9081 ft | 212 kts | 357° |
| 2026-05-04 13:06 | 24.49186 | 46.91168 | 8773 ft | 211 kts | 357° |
| 2026-05-04 13:06 | 24.50614 | 46.91148 | 8513 ft | 205 kts | 357° |
| 2026-05-04 13:06 | 24.52050 | 46.91129 | 8127 ft | 205 kts | 357° |
| 2026-05-04 13:06 | 24.53429 | 46.91112 | 8020 ft | 192 kts | 358° |
| 2026-05-04 13:07 | 24.54719 | 46.91095 | 7921 ft | 179 kts | 358° |
| 2026-05-04 13:07 | 24.55931 | 46.91079 | 7744 ft | 172 kts | 357° |
| 2026-05-04 13:07 | 24.57133 | 46.91061 | 7428 ft | 173 kts | 357° |
| 2026-05-04 13:07 | 24.58263 | 46.91045 | 7159 ft | 173 kts | 358° |
| 2026-05-04 13:08 | 24.59452 | 46.91003 | 6893 ft | 171 kts | 349° |
| 2026-05-04 13:08 | 24.60552 | 46.90551 | 6630 ft | 169 kts | 327° |
| 2026-05-04 13:08 | 24.61559 | 46.89886 | 6369 ft | 169 kts | 328° |
| 2026-05-04 13:08 | 24.62575 | 46.89240 | 6075 ft | 169 kts | 329° |
| 2026-05-04 13:09 | 24.63591 | 46.88601 | 5831 ft | 168 kts | 329° |
| 2026-05-04 13:09 | 24.64602 | 46.87972 | 5572 ft | 167 kts | 329° |
| 2026-05-04 13:09 | 24.65605 | 46.87345 | 5287 ft | 166 kts | 329° |
| 2026-05-04 13:09 | 24.66609 | 46.86711 | 5029 ft | 167 kts | 329° |
| 2026-05-04 13:10 | 24.67614 | 46.86084 | 4807 ft | 164 kts | 329° |
| 2026-05-04 13:10 | 24.68599 | 46.85470 | 4566 ft | 164 kts | 329° |
| 2026-05-04 13:10 | 24.69588 | 46.84848 | 4331 ft | 164 kts | 329° |
| 2026-05-04 13:10 | 24.70574 | 46.84217 | 4117 ft | 162 kts | 329° |
| 2026-05-04 13:11 | 24.71213 | 46.83817 | 4003 ft | 156 kts | 330° |
| 2026-05-04 13:11 | 24.71308 | 46.83757 | 3993 ft | 154 kts | 330° |
| 2026-05-04 13:11 | 24.72090 | 46.83271 | 3997 ft | 159 kts | 329° |
| 2026-05-04 13:11 | 24.73068 | 46.82655 | 3978 ft | 157 kts | 329° |
| 2026-05-04 13:12 | 24.73995 | 46.82074 | 3985 ft | 152 kts | 330° |
| 2026-05-04 13:12 | 24.74921 | 46.81498 | 3989 ft | 154 kts | 329° |
| 2026-05-04 13:12 | 24.75841 | 46.80916 | 3988 ft | 152 kts | 329° |
| 2026-05-04 13:12 | 24.76761 | 46.80330 | 3988 ft | 153 kts | 329° |
| 2026-05-04 13:13 | 24.77689 | 46.79746 | 3973 ft | 152 kts | 329° |
| 2026-05-04 13:13 | 24.78610 | 46.79161 | 3977 ft | 154 kts | 329° |
| 2026-05-04 13:13 | 24.79541 | 46.78577 | 3988 ft | 155 kts | 329° |
| 2026-05-04 13:13 | 24.80464 | 46.77989 | 3974 ft | 152 kts | 329° |
| 2026-05-04 13:14 | 24.81387 | 46.77406 | 3982 ft | 154 kts | 329° |
| 2026-05-04 13:14 | 24.82314 | 46.76823 | 3983 ft | 153 kts | 329° |
| 2026-05-04 13:14 | 24.83244 | 46.76238 | 3976 ft | 153 kts | 329° |
| 2026-05-04 13:14 | 24.84160 | 46.75666 | 3978 ft | 154 kts | 329° |
| 2026-05-04 13:15 | 24.85098 | 46.75090 | 3951 ft | 154 kts | 330° |
| 2026-05-04 13:15 | 24.86036 | 46.74515 | 3784 ft | 153 kts | 329° |
| 2026-05-04 13:15 | 24.86961 | 46.73929 | 3597 ft | 154 kts | 329° |
| 2026-05-04 13:15 | 24.87888 | 46.73340 | 3405 ft | 154 kts | 329° |
| 2026-05-04 13:16 | 24.88812 | 46.72754 | 3216 ft | 153 kts | 329° |
| 2026-05-04 13:16 | 24.89584 | 46.72263 | 3064 ft | 153 kts | 329° |
| 2026-05-04 13:16 | 24.89865 | 46.72085 | 3008 ft | 153 kts | 329° |
| 2026-05-04 13:16 | 24.90715 | 46.71545 | 2825 ft | 153 kts | 329° |
| 2026-05-04 13:17 | 24.91269 | 46.71193 | 2703 ft | 154 kts | 329° |
| 2026-05-04 13:17 | 24.92209 | 46.70596 | 2499 ft | 152 kts | 329° |
| 2026-05-04 13:17 | 24.93106 | 46.70024 | 2302 ft | 143 kts | 329° |
| 2026-05-04 13:17 | 24.93938 | 46.69498 | 2110 ft | 134 kts | 329° |
| 2026-05-04 13:18 | 24.94694 | 46.69007 | 2036 ft | 120 kts | 330° |
| 2026-05-04 13:18 | 24.95066 | 46.68770 | 2032 ft | 26 kts | 330° |
| 2026-05-04 13:18 | 24.95205 | 46.68696 | 2035 ft | 25 kts | 341° |
| 2026-05-04 13:18 | 24.95412 | 46.68683 | 2032 ft | 35 kts | 19° |
| 2026-05-04 13:19 | 24.95578 | 46.68901 | 2037 ft | 42 kts | 60° |
| 2026-05-04 13:19 | 24.95710 | 46.69157 | 2034 ft | 32 kts | 63° |
| 2026-05-04 13:19 | 24.95732 | 46.69270 | 2029 ft | 16 kts | 110° |
| 2026-05-04 13:19 | 24.95687 | 46.69382 | 2034 ft | 17 kts | 123° |
| 2026-05-04 13:20 | 24.95596 | 46.69446 | 2029 ft | 0 kts | 148° |
| 2026-05-04 13:20 | 24.95551 | 46.69476 | 2037 ft | 16 kts | 149° |
| 2026-05-04 13:21 | 24.95411 | 46.69560 | 2031 ft | 19 kts | 150° |
| 2026-05-04 13:21 | 24.95398 | 46.69624 | 2035 ft | 12 kts | 63° |
| 2026-05-04 13:21 | 24.95489 | 46.69654 | 2036 ft | 15 kts | 355° |
| 2026-05-04 13:21 | 24.95512 | 46.69654 | 2036 ft | 0 kts | 359° |
| 2026-05-04 13:22 | 24.95516 | 46.69654 | 2034 ft | 1 kts | 359° |
| 2026-05-04 13:22 | 24.95517 | 46.69654 | 2034 ft | 0 kts | 359° |